PWSweather.com
Personal Weather Stations
Station Observations
PICKERING
North Yorkshire, PickeringGB

North YorkshirePickeringGB

Lat: 54.2494, Lon: -0.7725

Elevation: 192

Station Type: Oregon Scientific WMR100

http://www.yorkshirewalker.co.uk/weather/

High Low Average
Temperature 54.3°F12.4°C 30.6°F-0.8°C 42.4°F5.8°C
Dew Point 46.4°F8.0°C 24.8°F-4.0°C 35.9°F2.2°C
Winds 5.1 mph 8.2 kmh Calm Calm 2.0 mph SSW3.2 kmh SSW
Wind Gusts 9.6 mph15.4 kmh -- 4.0 mph6.4 kmh
Humidity 84% 68% 77%
Pressure 29.71 in1006.1 mb 29.12 in986.1 mb -
Precipitation 0.00 in0.0 mm - -
Hour Temp Dew Point Humidity Winds Wind Gusts Pressure Precip Precip Rate Daily Precip Total
12:00 AM 34.7°F1.5°C 30.2°F-1.0°C 80% 0.1 mph SSW0.2 kmh SSW 0.9 mph1.4 kmh 29.71 in1006.1 mb 0.00 in0.0 mm 0.00 in0.0 mm 0.00 in0.0 mm
12:05 AM 34.7°F1.5°C 30.2°F-1.0°C 80% 0.2 mph SSW0.3 kmh SSW 1.1 mph1.8 kmh 29.71 in1006.1 mb 0.00 in0.0 mm 0.00 in0.0 mm 0.00 in0.0 mm
12:10 AM 34.3°F1.3°C 30.2°F-1.0°C 80% 0.1 mph SSW0.2 kmh SSW 1.1 mph1.8 kmh 29.71 in1006.1 mb 0.00 in0.0 mm 0.00 in0.0 mm 0.00 in0.0 mm
12:15 AM 34.3°F1.3°C 30.2°F-1.0°C 80% Calm Calm -- 29.68 in1005.1 mb 0.00 in0.0 mm 0.00 in0.0 mm 0.00 in0.0 mm
12:20 AM 34.2°F1.2°C 30.2°F-1.0°C 80% 0.1 mph SSE0.2 kmh SSE 1.1 mph1.8 kmh 29.68 in1005.1 mb 0.00 in0.0 mm 0.00 in0.0 mm 0.00 in0.0 mm
12:25 AM 34.3°F1.3°C 30.2°F-1.0°C 80% 0.4 mph S0.6 kmh S 2.0 mph3.2 kmh 29.68 in1005.1 mb 0.00 in0.0 mm 0.00 in0.0 mm 0.00 in0.0 mm
12:30 AM 34.0°F1.1°C 28.4°F-2.0°C 80% 0.3 mph SSW0.5 kmh SSW 2.0 mph3.2 kmh 29.68 in1005.1 mb 0.00 in0.0 mm 0.00 in0.0 mm 0.00 in0.0 mm
12:35 AM 34.0°F1.1°C 28.4°F-2.0°C 80% 0.2 mph S0.3 kmh S 1.1 mph1.8 kmh 29.68 in1005.1 mb 0.00 in0.0 mm 0.00 in0.0 mm 0.00 in0.0 mm
12:40 AM 34.2°F1.2°C 30.2°F-1.0°C 80% 0.6 mph S1.0 kmh S 2.5 mph4.0 kmh 29.68 in1005.1 mb 0.00 in0.0 mm 0.00 in0.0 mm 0.00 in0.0 mm
12:45 AM 34.5°F1.4°C 30.2°F-1.0°C 81% 0.9 mph S1.4 kmh S 2.5 mph4.0 kmh 29.68 in1005.1 mb 0.00 in0.0 mm 0.00 in0.0 mm 0.00 in0.0 mm
12:50 AM 35.1°F1.7°C 30.2°F-1.0°C 81% 1.0 mph S1.6 kmh S 2.7 mph4.3 kmh 29.68 in1005.1 mb 0.00 in0.0 mm 0.00 in0.0 mm 0.00 in0.0 mm
12:55 AM 35.4°F1.9°C 30.2°F-1.0°C 82% 1.0 mph S1.6 kmh S 2.7 mph4.3 kmh 29.68 in1005.1 mb 0.00 in0.0 mm 0.00 in0.0 mm 0.00 in0.0 mm
01:00 AM 36.0°F2.2°C 32.0°F0.0°C 82% 1.1 mph S1.8 kmh S 1.6 mph2.6 kmh 29.68 in1005.1 mb 0.00 in0.0 mm 0.00 in0.0 mm 0.00 in0.0 mm
01:05 AM 36.0°F2.2°C 32.0°F0.0°C 82% 1.2 mph S1.9 kmh S 2.0 mph3.2 kmh 29.68 in1005.1 mb 0.00 in0.0 mm 0.00 in0.0 mm 0.00 in0.0 mm
01:10 AM 36.1°F2.3°C 32.0°F0.0°C 83% 1.6 mph SSW2.6 kmh SSW 3.1 mph5.0 kmh 29.68 in1005.1 mb 0.00 in0.0 mm 0.00 in0.0 mm 0.00 in0.0 mm
01:15 AM 36.7°F2.6°C 32.0°F0.0°C 83% 2.0 mph S3.2 kmh S 4.3 mph6.9 kmh 29.68 in1005.1 mb 0.00 in0.0 mm 0.00 in0.0 mm 0.00 in0.0 mm
01:20 AM 36.7°F2.6°C 32.0°F0.0°C 83% 1.8 mph S2.9 kmh S 4.3 mph6.9 kmh 29.68 in1005.1 mb 0.00 in0.0 mm 0.00 in0.0 mm 0.00 in0.0 mm
01:25 AM 36.9°F2.7°C 32.0°F0.0°C 83% 1.6 mph S2.6 kmh S 4.0 mph6.4 kmh 29.68 in1005.1 mb 0.00 in0.0 mm 0.00 in0.0 mm 0.00 in0.0 mm
01:30 AM 37.4°F3.0°C 33.8°F1.0°C 83% 2.2 mph S3.5 kmh S 4.3 mph6.9 kmh 29.68 in1005.1 mb 0.00 in0.0 mm 0.00 in0.0 mm 0.00 in0.0 mm
01:35 AM 37.8°F3.2°C 33.8°F1.0°C 83% 2.2 mph S3.5 kmh S 4.3 mph6.9 kmh 29.68 in1005.1 mb 0.00 in0.0 mm 0.00 in0.0 mm 0.00 in0.0 mm
01:40 AM 38.1°F3.4°C 33.8°F1.0°C 83% 2.5 mph S4.0 kmh S 4.3 mph6.9 kmh 29.68 in1005.1 mb 0.00 in0.0 mm 0.00 in0.0 mm 0.00 in0.0 mm
01:50 AM 37.8°F3.2°C 33.8°F1.0°C 82% 0.9 mph S1.4 kmh S 2.5 mph4.0 kmh 29.68 in1005.1 mb 0.00 in0.0 mm 0.00 in0.0 mm 0.00 in0.0 mm
01:55 AM 37.4°F3.0°C 33.8°F1.0°C 82% 0.7 mph S1.1 kmh S 2.9 mph4.7 kmh 29.68 in1005.1 mb 0.00 in0.0 mm 0.00 in0.0 mm 0.00 in0.0 mm
02:00 AM 37.2°F2.9°C 33.8°F1.0°C 82% 0.7 mph SSW1.1 kmh SSW 2.9 mph4.7 kmh 29.68 in1005.1 mb 0.00 in0.0 mm 0.00 in0.0 mm 0.00 in0.0 mm
02:05 AM 37.0°F2.8°C 33.8°F1.0°C 82% 0.5 mph SW0.8 kmh SW 1.6 mph2.6 kmh 29.45 in997.3 mb 0.00 in0.0 mm 0.00 in0.0 mm 0.00 in0.0 mm
02:10 AM 36.3°F2.4°C 32.0°F0.0°C 82% 0.6 mph SW1.0 kmh SW 2.2 mph3.5 kmh 29.45 in997.3 mb 0.00 in0.0 mm 0.00 in0.0 mm 0.00 in0.0 mm
02:15 AM 36.3°F2.4°C 32.0°F0.0°C 82% 0.5 mph SW0.8 kmh SW 2.2 mph3.5 kmh 29.45 in997.3 mb 0.00 in0.0 mm 0.00 in0.0 mm 0.00 in0.0 mm
02:20 AM 36.0°F2.2°C 30.2°F-1.0°C 81% 0.1 mph SW0.2 kmh SW 1.1 mph1.8 kmh 29.65 in1004.1 mb 0.00 in0.0 mm 0.00 in0.0 mm 0.00 in0.0 mm
02:25 AM 35.6°F2.0°C 30.2°F-1.0°C 81% 0.2 mph S0.3 kmh S 0.9 mph1.4 kmh 29.65 in1004.1 mb 0.00 in0.0 mm 0.00 in0.0 mm 0.00 in0.0 mm
02:30 AM 35.8°F2.1°C 32.0°F0.0°C 82% 0.4 mph S0.6 kmh S 1.3 mph2.1 kmh 29.65 in1004.1 mb 0.00 in0.0 mm 0.00 in0.0 mm 0.00 in0.0 mm
02:35 AM 36.3°F2.4°C 32.0°F0.0°C 82% 1.1 mph S1.8 kmh S 3.1 mph5.0 kmh 29.65 in1004.1 mb 0.00 in0.0 mm 0.00 in0.0 mm 0.00 in0.0 mm
02:40 AM 37.0°F2.8°C 33.8°F1.0°C 82% 1.8 mph S2.9 kmh S 3.1 mph5.0 kmh 29.65 in1004.1 mb 0.00 in0.0 mm 0.00 in0.0 mm 0.00 in0.0 mm
02:45 AM 36.9°F2.7°C 32.0°F0.0°C 82% 1.6 mph S2.6 kmh S 3.1 mph5.0 kmh 29.65 in1004.1 mb 0.00 in0.0 mm 0.00 in0.0 mm 0.00 in0.0 mm
02:50 AM 35.8°F2.1°C 32.0°F0.0°C 82% 0.8 mph S1.3 kmh S 2.7 mph4.3 kmh 29.65 in1004.1 mb 0.00 in0.0 mm 0.00 in0.0 mm 0.00 in0.0 mm
02:55 AM 35.2°F1.8°C 30.2°F-1.0°C 81% 0.1 mph S0.2 kmh S 0.9 mph1.4 kmh 29.65 in1004.1 mb 0.00 in0.0 mm 0.00 in0.0 mm 0.00 in0.0 mm
03:00 AM 34.9°F1.6°C 30.2°F-1.0°C 81% Calm Calm -- 29.65 in1004.1 mb 0.00 in0.0 mm 0.00 in0.0 mm 0.00 in0.0 mm
03:05 AM 34.5°F1.4°C 30.2°F-1.0°C 81% 0.2 mph SSW0.3 kmh SSW 2.0 mph3.2 kmh 29.41 in995.9 mb 0.00 in0.0 mm 0.00 in0.0 mm 0.00 in0.0 mm
03:10 AM 34.5°F1.4°C 30.2°F-1.0°C 81% 0.6 mph SSW1.0 kmh SSW 2.0 mph3.2 kmh 29.41 in995.9 mb 0.00 in0.0 mm 0.00 in0.0 mm 0.00 in0.0 mm
03:15 AM 34.3°F1.3°C 30.2°F-1.0°C 81% 0.6 mph SW1.0 kmh SW 1.6 mph2.6 kmh 29.41 in995.9 mb 0.00 in0.0 mm 0.00 in0.0 mm 0.00 in0.0 mm
03:20 AM 34.2°F1.2°C 30.2°F-1.0°C 82% 0.9 mph SW1.4 kmh SW 1.6 mph2.6 kmh 29.62 in1003.0 mb 0.00 in0.0 mm 0.00 in0.0 mm 0.00 in0.0 mm
03:25 AM 34.3°F1.3°C 30.2°F-1.0°C 82% 1.3 mph SW2.1 kmh SW 1.6 mph2.6 kmh 29.62 in1003.0 mb 0.00 in0.0 mm 0.00 in0.0 mm 0.00 in0.0 mm
03:30 AM 34.2°F1.2°C 30.2°F-1.0°C 82% 1.0 mph SW1.6 kmh SW 1.6 mph2.6 kmh 29.62 in1003.0 mb 0.00 in0.0 mm 0.00 in0.0 mm 0.00 in0.0 mm
03:35 AM 34.3°F1.3°C 30.2°F-1.0°C 82% 0.4 mph SW0.6 kmh SW 1.1 mph1.8 kmh 29.59 in1002.0 mb 0.00 in0.0 mm 0.00 in0.0 mm 0.00 in0.0 mm
03:40 AM 34.5°F1.4°C 30.2°F-1.0°C 82% 0.8 mph SW1.3 kmh SW 2.7 mph4.3 kmh 29.59 in1002.0 mb 0.00 in0.0 mm 0.00 in0.0 mm 0.00 in0.0 mm
03:45 AM 34.9°F1.6°C 30.2°F-1.0°C 83% 1.2 mph SW1.9 kmh SW 2.7 mph4.3 kmh 29.59 in1002.0 mb 0.00 in0.0 mm 0.00 in0.0 mm 0.00 in0.0 mm
03:50 AM 35.1°F1.7°C 30.2°F-1.0°C 83% 1.5 mph SSW2.4 kmh SSW 3.8 mph6.1 kmh 29.62 in1003.0 mb 0.00 in0.0 mm 0.00 in0.0 mm 0.00 in0.0 mm
03:55 AM 35.6°F2.0°C 32.0°F0.0°C 83% 1.9 mph SSW3.1 kmh SSW 3.8 mph6.1 kmh 29.62 in1003.0 mb 0.00 in0.0 mm 0.00 in0.0 mm 0.00 in0.0 mm
04:00 AM 35.8°F2.1°C 32.0°F0.0°C 83% 2.5 mph SSW4.0 kmh SSW 4.3 mph6.9 kmh 29.62 in1003.0 mb 0.00 in0.0 mm 0.00 in0.0 mm 0.00 in0.0 mm
04:05 AM 35.8°F2.1°C 32.0°F0.0°C 83% 2.7 mph SSW4.3 kmh SSW 4.3 mph6.9 kmh 29.62 in1003.0 mb 0.00 in0.0 mm 0.00 in0.0 mm 0.00 in0.0 mm
04:10 AM 36.1°F2.3°C 32.0°F0.0°C 83% 2.9 mph SSW4.7 kmh SSW 4.5 mph7.2 kmh 29.62 in1003.0 mb 0.00 in0.0 mm 0.00 in0.0 mm 0.00 in0.0 mm
04:15 AM 36.3°F2.4°C 32.0°F0.0°C 83% 3.0 mph SSW4.8 kmh SSW 4.5 mph7.2 kmh 29.62 in1003.0 mb 0.00 in0.0 mm 0.00 in0.0 mm 0.00 in0.0 mm
04:20 AM 36.0°F2.2°C 32.0°F0.0°C 83% 2.4 mph SSW3.9 kmh SSW 4.0 mph6.4 kmh 29.62 in1003.0 mb 0.00 in0.0 mm 0.00 in0.0 mm 0.00 in0.0 mm
04:25 AM 36.1°F2.3°C 32.0°F0.0°C 83% 2.8 mph SSW4.5 kmh SSW 4.7 mph7.6 kmh 29.62 in1003.0 mb 0.00 in0.0 mm 0.00 in0.0 mm 0.00 in0.0 mm
04:30 AM 36.0°F2.2°C 32.0°F0.0°C 83% 3.0 mph SSW4.8 kmh SSW 4.7 mph7.6 kmh 29.62 in1003.0 mb 0.00 in0.0 mm 0.00 in0.0 mm 0.00 in0.0 mm
04:35 AM 36.0°F2.2°C 32.0°F0.0°C 82% 2.6 mph SSW4.2 kmh SSW 4.3 mph6.9 kmh 29.62 in1003.0 mb 0.00 in0.0 mm 0.00 in0.0 mm 0.00 in0.0 mm
04:40 AM 35.4°F1.9°C 30.2°F-1.0°C 82% 2.0 mph SW3.2 kmh SW 3.4 mph5.5 kmh 29.62 in1003.0 mb 0.00 in0.0 mm 0.00 in0.0 mm 0.00 in0.0 mm
04:45 AM 35.2°F1.8°C 30.2°F-1.0°C 82% 1.7 mph WSW2.7 kmh WSW 2.7 mph4.3 kmh 29.62 in1003.0 mb 0.00 in0.0 mm 0.00 in0.0 mm 0.00 in0.0 mm
04:50 AM 35.4°F1.9°C 30.2°F-1.0°C 82% 2.1 mph WSW3.4 kmh WSW 3.4 mph5.5 kmh 29.62 in1003.0 mb 0.00 in0.0 mm 0.00 in0.0 mm 0.00 in0.0 mm
04:55 AM 35.1°F1.7°C 30.2°F-1.0°C 82% 2.1 mph WSW3.4 kmh WSW 3.4 mph5.5 kmh 29.62 in1003.0 mb 0.00 in0.0 mm 0.00 in0.0 mm 0.00 in0.0 mm
05:00 AM 35.1°F1.7°C 30.2°F-1.0°C 82% 1.4 mph SW2.3 kmh SW 3.1 mph5.0 kmh 29.62 in1003.0 mb 0.00 in0.0 mm 0.00 in0.0 mm 0.00 in0.0 mm
05:05 AM 35.2°F1.8°C 30.2°F-1.0°C 82% 1.7 mph SSW2.7 kmh SSW 3.8 mph6.1 kmh 29.62 in1003.0 mb 0.00 in0.0 mm 0.00 in0.0 mm 0.00 in0.0 mm
05:10 AM 34.9°F1.6°C 30.2°F-1.0°C 82% 1.9 mph SSW3.1 kmh SSW 3.8 mph6.1 kmh 29.62 in1003.0 mb 0.00 in0.0 mm 0.00 in0.0 mm 0.00 in0.0 mm
05:15 AM 34.3°F1.3°C 30.2°F-1.0°C 82% 1.2 mph SSW1.9 kmh SSW 2.9 mph4.7 kmh 29.62 in1003.0 mb 0.00 in0.0 mm 0.00 in0.0 mm 0.00 in0.0 mm
05:20 AM 34.3°F1.3°C 30.2°F-1.0°C 82% 1.1 mph SW1.8 kmh SW 2.5 mph4.0 kmh 29.62 in1003.0 mb 0.00 in0.0 mm 0.00 in0.0 mm 0.00 in0.0 mm
05:25 AM 34.5°F1.4°C 30.2°F-1.0°C 82% 1.3 mph SW2.1 kmh SW 3.1 mph5.0 kmh 29.62 in1003.0 mb 0.00 in0.0 mm 0.00 in0.0 mm 0.00 in0.0 mm
05:30 AM 34.3°F1.3°C 30.2°F-1.0°C 82% 1.3 mph SW2.1 kmh SW 3.1 mph5.0 kmh 29.62 in1003.0 mb 0.00 in0.0 mm 0.00 in0.0 mm 0.00 in0.0 mm
05:35 AM 34.5°F1.4°C 30.2°F-1.0°C 82% 1.3 mph SSW2.1 kmh SSW 2.5 mph4.0 kmh 29.59 in1002.0 mb 0.00 in0.0 mm 0.00 in0.0 mm 0.00 in0.0 mm
05:40 AM 34.5°F1.4°C 30.2°F-1.0°C 82% 1.2 mph S1.9 kmh S 2.9 mph4.7 kmh 29.59 in1002.0 mb 0.00 in0.0 mm 0.00 in0.0 mm 0.00 in0.0 mm
05:45 AM 34.5°F1.4°C 30.2°F-1.0°C 82% 1.3 mph SSW2.1 kmh SSW 2.9 mph4.7 kmh 29.59 in1002.0 mb 0.00 in0.0 mm 0.00 in0.0 mm 0.00 in0.0 mm
05:50 AM 34.3°F1.3°C 30.2°F-1.0°C 82% 1.4 mph S2.3 kmh S 3.4 mph5.5 kmh 29.59 in1002.0 mb 0.00 in0.0 mm 0.00 in0.0 mm 0.00 in0.0 mm
05:55 AM 34.5°F1.4°C 30.2°F-1.0°C 82% 1.2 mph S1.9 kmh S 3.4 mph5.5 kmh 29.59 in1002.0 mb 0.00 in0.0 mm 0.00 in0.0 mm 0.00 in0.0 mm
06:00 AM 34.5°F1.4°C 30.2°F-1.0°C 82% 1.3 mph SSW2.1 kmh SSW 3.1 mph5.0 kmh 29.59 in1002.0 mb 0.00 in0.0 mm 0.00 in0.0 mm 0.00 in0.0 mm
06:05 AM 34.2°F1.2°C 30.2°F-1.0°C 82% 1.1 mph SW1.8 kmh SW 3.1 mph5.0 kmh 29.53 in1000.0 mb 0.00 in0.0 mm 0.00 in0.0 mm 0.00 in0.0 mm
06:10 AM 33.4°F0.8°C 28.4°F-2.0°C 81% 0.6 mph SW1.0 kmh SW 2.2 mph3.5 kmh 29.53 in1000.0 mb 0.00 in0.0 mm 0.00 in0.0 mm 0.00 in0.0 mm
06:15 AM 33.1°F0.6°C 28.4°F-2.0°C 81% 0.9 mph SW1.4 kmh SW 3.1 mph5.0 kmh 29.53 in1000.0 mb 0.00 in0.0 mm 0.00 in0.0 mm 0.00 in0.0 mm
06:20 AM 32.9°F0.5°C 28.4°F-2.0°C 81% 0.6 mph WSW1.0 kmh WSW 3.1 mph5.0 kmh 29.59 in1002.0 mb 0.00 in0.0 mm 0.00 in0.0 mm 0.00 in0.0 mm
06:25 AM 33.3°F0.7°C 28.4°F-2.0°C 82% Calm Calm -- 29.59 in1002.0 mb 0.00 in0.0 mm 0.00 in0.0 mm 0.00 in0.0 mm
06:30 AM 33.3°F0.7°C 28.4°F-2.0°C 82% 0.4 mph S0.6 kmh S 2.7 mph4.3 kmh 29.59 in1002.0 mb 0.00 in0.0 mm 0.00 in0.0 mm 0.00 in0.0 mm
06:35 AM 33.3°F0.7°C 28.4°F-2.0°C 82% 0.7 mph S1.1 kmh S 2.7 mph4.3 kmh 29.59 in1002.0 mb 0.00 in0.0 mm 0.00 in0.0 mm 0.00 in0.0 mm
06:40 AM 32.4°F0.2°C 28.4°F-2.0°C 82% 0.5 mph S0.8 kmh S 1.1 mph1.8 kmh 29.59 in1002.0 mb 0.00 in0.0 mm 0.00 in0.0 mm 0.00 in0.0 mm
06:45 AM 32.0°F0.0°C 24.8°F-4.0°C 81% 0.4 mph SW0.6 kmh SW 1.1 mph1.8 kmh 29.59 in1002.0 mb 0.00 in0.0 mm 0.00 in0.0 mm 0.00 in0.0 mm
06:50 AM 32.0°F0.0°C 24.8°F-4.0°C 81% 0.3 mph WNW0.5 kmh WNW 1.1 mph1.8 kmh 29.59 in1002.0 mb 0.00 in0.0 mm 0.00 in0.0 mm 0.00 in0.0 mm
06:55 AM 31.8°F-0.1°C 24.8°F-4.0°C 81% 0.2 mph NW0.3 kmh NW 1.1 mph1.8 kmh 29.59 in1002.0 mb 0.00 in0.0 mm 0.00 in0.0 mm 0.00 in0.0 mm
07:00 AM 31.3°F-0.4°C 24.8°F-4.0°C 81% 0.1 mph NNW0.2 kmh NNW 0.9 mph1.4 kmh 29.59 in1002.0 mb 0.00 in0.0 mm 0.00 in0.0 mm 0.00 in0.0 mm
07:05 AM 31.1°F-0.5°C 24.8°F-4.0°C 81% 0.4 mph NW0.6 kmh NW 2.7 mph4.3 kmh 29.59 in1002.0 mb 0.00 in0.0 mm 0.00 in0.0 mm 0.00 in0.0 mm
07:10 AM 30.9°F-0.6°C 24.8°F-4.0°C 81% 0.6 mph NW1.0 kmh NW 2.7 mph4.3 kmh 29.59 in1002.0 mb 0.00 in0.0 mm 0.00 in0.0 mm 0.00 in0.0 mm
07:15 AM 30.9°F-0.6°C 24.8°F-4.0°C 81% 0.4 mph N0.6 kmh N 1.6 mph2.6 kmh 29.59 in1002.0 mb 0.00 in0.0 mm 0.00 in0.0 mm 0.00 in0.0 mm
07:20 AM 31.1°F-0.5°C 24.8°F-4.0°C 82% 0.2 mph N0.3 kmh N 1.3 mph2.1 kmh 29.59 in1002.0 mb 0.00 in0.0 mm 0.00 in0.0 mm 0.00 in0.0 mm
07:25 AM 31.3°F-0.4°C 24.8°F-4.0°C 82% 0.2 mph NW0.3 kmh NW 0.9 mph1.4 kmh 29.59 in1002.0 mb 0.00 in0.0 mm 0.00 in0.0 mm 0.00 in0.0 mm
07:30 AM 32.0°F0.0°C 26.6°F-3.0°C 82% 0.1 mph NW0.2 kmh NW 0.9 mph1.4 kmh 29.59 in1002.0 mb 0.00 in0.0 mm 0.00 in0.0 mm 0.00 in0.0 mm
07:35 AM 32.0°F0.0°C 26.6°F-3.0°C 82% 0.4 mph ENE0.6 kmh ENE 1.1 mph1.8 kmh 29.59 in1002.0 mb 0.00 in0.0 mm 0.00 in0.0 mm 0.00 in0.0 mm
07:40 AM 31.6°F-0.2°C 26.6°F-3.0°C 82% 0.6 mph E1.0 kmh E 1.1 mph1.8 kmh 29.59 in1002.0 mb 0.00 in0.0 mm 0.00 in0.0 mm 0.00 in0.0 mm
07:45 AM 31.1°F-0.5°C 24.8°F-4.0°C 82% 0.3 mph NE0.5 kmh NE 1.1 mph1.8 kmh 29.59 in1002.0 mb 0.00 in0.0 mm 0.00 in0.0 mm 0.00 in0.0 mm
07:50 AM 30.7°F-0.7°C 24.8°F-4.0°C 82% 0.4 mph NE0.6 kmh NE 1.3 mph2.1 kmh 29.59 in1002.0 mb 0.00 in0.0 mm 0.00 in0.0 mm 0.00 in0.0 mm
07:55 AM 30.6°F-0.8°C 24.8°F-4.0°C 82% 0.5 mph NE0.8 kmh NE 1.6 mph2.6 kmh 29.59 in1002.0 mb 0.00 in0.0 mm 0.00 in0.0 mm 0.00 in0.0 mm
08:00 AM 30.6°F-0.8°C 24.8°F-4.0°C 82% 0.7 mph NNE1.1 kmh NNE 1.6 mph2.6 kmh 29.59 in1002.0 mb 0.00 in0.0 mm 0.00 in0.0 mm 0.00 in0.0 mm
08:05 AM 30.6°F-0.8°C 24.8°F-4.0°C 82% 0.8 mph N1.3 kmh N 1.6 mph2.6 kmh 29.59 in1002.0 mb 0.00 in0.0 mm 0.00 in0.0 mm 0.00 in0.0 mm
08:10 AM 30.6°F-0.8°C 24.8°F-4.0°C 82% 0.8 mph NNW1.3 kmh NNW 1.6 mph2.6 kmh 29.59 in1002.0 mb 0.00 in0.0 mm 0.00 in0.0 mm 0.00 in0.0 mm
08:15 AM 30.6°F-0.8°C 24.8°F-4.0°C 82% 0.6 mph NW1.0 kmh NW 1.3 mph2.1 kmh 29.59 in1002.0 mb 0.00 in0.0 mm 0.00 in0.0 mm 0.00 in0.0 mm
08:20 AM 31.3°F-0.4°C 24.8°F-4.0°C 83% 0.7 mph W1.1 kmh W 3.4 mph5.5 kmh 29.56 in1001.0 mb 0.00 in0.0 mm 0.00 in0.0 mm 0.00 in0.0 mm
08:25 AM 31.5°F-0.3°C 24.8°F-4.0°C 83% 0.8 mph W1.3 kmh W 3.4 mph5.5 kmh 29.56 in1001.0 mb 0.00 in0.0 mm 0.00 in0.0 mm 0.00 in0.0 mm
08:30 AM 31.8°F-0.1°C 26.6°F-3.0°C 83% 1.2 mph W1.9 kmh W 3.4 mph5.5 kmh 29.56 in1001.0 mb 0.00 in0.0 mm 0.00 in0.0 mm 0.00 in0.0 mm
08:35 AM 32.0°F0.0°C 26.6°F-3.0°C 83% 1.6 mph W2.6 kmh W 3.4 mph5.5 kmh 29.56 in1001.0 mb 0.00 in0.0 mm 0.00 in0.0 mm 0.00 in0.0 mm
08:40 AM 32.0°F0.0°C 26.6°F-3.0°C 83% 1.1 mph NW1.8 kmh NW 2.7 mph4.3 kmh 29.56 in1001.0 mb 0.00 in0.0 mm 0.00 in0.0 mm 0.00 in0.0 mm
08:45 AM 32.2°F0.1°C 28.4°F-2.0°C 83% 0.7 mph NW1.1 kmh NW 1.6 mph2.6 kmh 29.56 in1001.0 mb 0.00 in0.0 mm 0.00 in0.0 mm 0.00 in0.0 mm
08:50 AM 32.4°F0.2°C 28.4°F-2.0°C 83% 1.5 mph WNW2.4 kmh WNW 2.7 mph4.3 kmh 29.56 in1001.0 mb 0.00 in0.0 mm 0.00 in0.0 mm 0.00 in0.0 mm
08:55 AM 32.9°F0.5°C 28.4°F-2.0°C 83% 2.5 mph W4.0 kmh W 3.8 mph6.1 kmh 29.56 in1001.0 mb 0.00 in0.0 mm 0.00 in0.0 mm 0.00 in0.0 mm
09:00 AM 33.6°F0.9°C 30.2°F-1.0°C 84% 2.2 mph W3.5 kmh W 3.8 mph6.1 kmh 29.56 in1001.0 mb 0.00 in0.0 mm 0.00 in0.0 mm 0.00 in0.0 mm
09:05 AM 33.8°F1.0°C 30.2°F-1.0°C 84% 1.2 mph W1.9 kmh W 3.6 mph5.8 kmh 29.33 in993.2 mb 0.00 in0.0 mm 0.00 in0.0 mm 0.00 in0.0 mm
09:10 AM 33.8°F1.0°C 30.2°F-1.0°C 83% 0.7 mph WSW1.1 kmh WSW 3.1 mph5.0 kmh 29.33 in993.2 mb 0.00 in0.0 mm 0.00 in0.0 mm 0.00 in0.0 mm
09:15 AM 34.2°F1.2°C 30.2°F-1.0°C 83% 0.9 mph W1.4 kmh W 3.1 mph5.0 kmh 29.33 in993.2 mb 0.00 in0.0 mm 0.00 in0.0 mm 0.00 in0.0 mm
09:20 AM 34.3°F1.3°C 30.2°F-1.0°C 83% 1.1 mph WNW1.8 kmh WNW 2.2 mph3.5 kmh 29.50 in999.0 mb 0.00 in0.0 mm 0.00 in0.0 mm 0.00 in0.0 mm
09:25 AM 34.9°F1.6°C 30.2°F-1.0°C 83% 1.4 mph W2.3 kmh W 3.1 mph5.0 kmh 29.50 in999.0 mb 0.00 in0.0 mm 0.00 in0.0 mm 0.00 in0.0 mm
09:30 AM 35.1°F1.7°C 30.2°F-1.0°C 83% 2.1 mph W3.4 kmh W 3.8 mph6.1 kmh 29.50 in999.0 mb 0.00 in0.0 mm 0.00 in0.0 mm 0.00 in0.0 mm
09:35 AM 35.1°F1.7°C 30.2°F-1.0°C 83% 2.4 mph W3.9 kmh W 3.8 mph6.1 kmh 29.45 in997.3 mb 0.00 in0.0 mm 0.00 in0.0 mm 0.00 in0.0 mm
09:40 AM 35.2°F1.8°C 30.2°F-1.0°C 83% 2.0 mph WNW3.2 kmh WNW 3.6 mph5.8 kmh 29.45 in997.3 mb 0.00 in0.0 mm 0.00 in0.0 mm 0.00 in0.0 mm
09:45 AM 35.6°F2.0°C 32.0°F0.0°C 83% 2.1 mph W3.4 kmh W 3.6 mph5.8 kmh 29.45 in997.3 mb 0.00 in0.0 mm 0.00 in0.0 mm 0.00 in0.0 mm
09:50 AM 36.0°F2.2°C 32.0°F0.0°C 82% 1.9 mph WSW3.1 kmh WSW 3.6 mph5.8 kmh 29.50 in999.0 mb 0.00 in0.0 mm 0.00 in0.0 mm 0.00 in0.0 mm
09:55 AM 36.1°F2.3°C 32.0°F0.0°C 82% 1.6 mph WSW2.6 kmh WSW 2.7 mph4.3 kmh 29.50 in999.0 mb 0.00 in0.0 mm 0.00 in0.0 mm 0.00 in0.0 mm
10:00 AM 36.3°F2.4°C 32.0°F0.0°C 82% 1.7 mph W2.7 kmh W 3.4 mph5.5 kmh 29.50 in999.0 mb 0.00 in0.0 mm 0.00 in0.0 mm 0.00 in0.0 mm
10:05 AM 36.3°F2.4°C 32.0°F0.0°C 82% 2.1 mph W3.4 kmh W 3.4 mph5.5 kmh 29.50 in999.0 mb 0.00 in0.0 mm 0.00 in0.0 mm 0.00 in0.0 mm
10:10 AM 36.7°F2.6°C 32.0°F0.0°C 82% 2.4 mph W3.9 kmh W 3.1 mph5.0 kmh 29.50 in999.0 mb 0.00 in0.0 mm 0.00 in0.0 mm 0.00 in0.0 mm
10:15 AM 36.9°F2.7°C 32.0°F0.0°C 82% 1.9 mph W3.1 kmh W 3.1 mph5.0 kmh 29.50 in999.0 mb 0.00 in0.0 mm 0.00 in0.0 mm 0.00 in0.0 mm
10:20 AM 37.0°F2.8°C 32.0°F0.0°C 81% 1.9 mph WSW3.1 kmh WSW 3.8 mph6.1 kmh 29.50 in999.0 mb 0.00 in0.0 mm 0.00 in0.0 mm 0.00 in0.0 mm
10:25 AM 37.0°F2.8°C 32.0°F0.0°C 81% 1.4 mph WSW2.3 kmh WSW 3.8 mph6.1 kmh 29.50 in999.0 mb 0.00 in0.0 mm 0.00 in0.0 mm 0.00 in0.0 mm
10:30 AM 37.0°F2.8°C 32.0°F0.0°C 81% 0.6 mph W1.0 kmh W 2.0 mph3.2 kmh 29.50 in999.0 mb 0.00 in0.0 mm 0.00 in0.0 mm 0.00 in0.0 mm
10:35 AM 37.4°F3.0°C 32.0°F0.0°C 81% 1.2 mph WSW1.9 kmh WSW 3.4 mph5.5 kmh 29.50 in999.0 mb 0.00 in0.0 mm 0.00 in0.0 mm 0.00 in0.0 mm
10:40 AM 37.6°F3.1°C 32.0°F0.0°C 81% 2.1 mph WSW3.4 kmh WSW 3.6 mph5.8 kmh 29.50 in999.0 mb 0.00 in0.0 mm 0.00 in0.0 mm 0.00 in0.0 mm
10:45 AM 38.1°F3.4°C 33.8°F1.0°C 81% 2.4 mph WSW3.9 kmh WSW 4.7 mph7.6 kmh 29.50 in999.0 mb 0.00 in0.0 mm 0.00 in0.0 mm 0.00 in0.0 mm
10:50 AM 38.3°F3.5°C 33.8°F1.0°C 81% 2.2 mph SW3.5 kmh SW 4.7 mph7.6 kmh 29.50 in999.0 mb 0.00 in0.0 mm 0.00 in0.0 mm 0.00 in0.0 mm
10:55 AM 38.8°F3.8°C 33.8°F1.0°C 81% 1.7 mph SW2.7 kmh SW 3.4 mph5.5 kmh 29.50 in999.0 mb 0.00 in0.0 mm 0.00 in0.0 mm 0.00 in0.0 mm
11:00 AM 40.1°F4.5°C 35.6°F2.0°C 81% 1.7 mph SSW2.7 kmh SSW 3.4 mph5.5 kmh 29.50 in999.0 mb 0.00 in0.0 mm 0.00 in0.0 mm 0.00 in0.0 mm
11:05 AM 41.7°F5.4°C 37.4°F3.0°C 80% 1.7 mph SW2.7 kmh SW 3.1 mph5.0 kmh 29.50 in999.0 mb 0.00 in0.0 mm 0.00 in0.0 mm 0.00 in0.0 mm
11:10 AM 43.5°F6.4°C 37.4°F3.0°C 79% 2.1 mph SW3.4 kmh SW 3.6 mph5.8 kmh 29.50 in999.0 mb 0.00 in0.0 mm 0.00 in0.0 mm 0.00 in0.0 mm
11:15 AM 45.1°F7.3°C 39.2°F4.0°C 79% 2.0 mph SW3.2 kmh SW 3.6 mph5.8 kmh 29.50 in999.0 mb 0.00 in0.0 mm 0.00 in0.0 mm 0.00 in0.0 mm
11:20 AM 45.9°F7.7°C 39.2°F4.0°C 78% 1.9 mph SSW3.1 kmh SSW 4.0 mph6.4 kmh 29.50 in999.0 mb 0.00 in0.0 mm 0.00 in0.0 mm 0.00 in0.0 mm
11:25 AM 46.6°F8.1°C 41.0°F5.0°C 77% 2.6 mph SSW4.2 kmh SSW 4.0 mph6.4 kmh 29.50 in999.0 mb 0.00 in0.0 mm 0.00 in0.0 mm 0.00 in0.0 mm
11:30 AM 47.3°F8.5°C 41.0°F5.0°C 76% 2.4 mph SSW3.9 kmh SSW 3.8 mph6.1 kmh 29.50 in999.0 mb 0.00 in0.0 mm 0.00 in0.0 mm 0.00 in0.0 mm
11:35 AM 48.2°F9.0°C 41.0°F5.0°C 75% 2.1 mph SW3.4 kmh SW 3.6 mph5.8 kmh 29.50 in999.0 mb 0.00 in0.0 mm 0.00 in0.0 mm 0.00 in0.0 mm
11:40 AM 49.1°F9.5°C 42.8°F6.0°C 74% 2.0 mph SW3.2 kmh SW 3.6 mph5.8 kmh 29.50 in999.0 mb 0.00 in0.0 mm 0.00 in0.0 mm 0.00 in0.0 mm
11:45 AM 50.0°F10.0°C 42.8°F6.0°C 74% 2.1 mph SW3.4 kmh SW 4.0 mph6.4 kmh 29.50 in999.0 mb 0.00 in0.0 mm 0.00 in0.0 mm 0.00 in0.0 mm
11:50 AM 50.5°F10.3°C 42.8°F6.0°C 73% 2.1 mph SW3.4 kmh SW 4.0 mph6.4 kmh 29.50 in999.0 mb 0.00 in0.0 mm 0.00 in0.0 mm 0.00 in0.0 mm
11:55 AM 51.1°F10.6°C 42.8°F6.0°C 72% 2.0 mph SW3.2 kmh SW 3.8 mph6.1 kmh 29.50 in999.0 mb 0.00 in0.0 mm 0.00 in0.0 mm 0.00 in0.0 mm
12:00 PM 51.1°F10.6°C 42.8°F6.0°C 71% 2.5 mph SSW4.0 kmh SSW 3.8 mph6.1 kmh 29.50 in999.0 mb 0.00 in0.0 mm 0.00 in0.0 mm 0.00 in0.0 mm
12:05 PM 51.4°F10.8°C 42.8°F6.0°C 71% 3.3 mph SW5.3 kmh SW 6.0 mph9.7 kmh 29.47 in998.0 mb 0.00 in0.0 mm 0.00 in0.0 mm 0.00 in0.0 mm
12:10 PM 51.1°F10.6°C 42.8°F6.0°C 71% 2.8 mph SW4.5 kmh SW 6.0 mph9.7 kmh 29.47 in998.0 mb 0.00 in0.0 mm 0.00 in0.0 mm 0.00 in0.0 mm
12:15 PM 51.6°F10.9°C 42.8°F6.0°C 71% 2.1 mph SW3.4 kmh SW 4.0 mph6.4 kmh 29.47 in998.0 mb 0.00 in0.0 mm 0.00 in0.0 mm 0.00 in0.0 mm
12:20 PM 52.2°F11.2°C 42.8°F6.0°C 71% 2.1 mph WSW3.4 kmh WSW 4.0 mph6.4 kmh 29.50 in999.0 mb 0.00 in0.0 mm 0.00 in0.0 mm 0.00 in0.0 mm
12:25 PM 52.7°F11.5°C 42.8°F6.0°C 70% 1.9 mph SW3.1 kmh SW 3.1 mph5.0 kmh 29.50 in999.0 mb 0.00 in0.0 mm 0.00 in0.0 mm 0.00 in0.0 mm
12:30 PM 53.1°F11.7°C 42.8°F6.0°C 70% 2.1 mph SW3.4 kmh SW 4.9 mph7.9 kmh 29.50 in999.0 mb 0.00 in0.0 mm 0.00 in0.0 mm 0.00 in0.0 mm
12:35 PM 53.6°F12.0°C 44.6°F7.0°C 70% 2.6 mph SW4.2 kmh SW 4.9 mph7.9 kmh 29.47 in998.0 mb 0.00 in0.0 mm 0.00 in0.0 mm 0.00 in0.0 mm
12:40 PM 53.4°F11.9°C 42.8°F6.0°C 69% 2.8 mph SSW4.5 kmh SSW 4.9 mph7.9 kmh 29.47 in998.0 mb 0.00 in0.0 mm 0.00 in0.0 mm 0.00 in0.0 mm
12:45 PM 53.8°F12.1°C 44.6°F7.0°C 69% 3.0 mph SSW4.8 kmh SSW 4.9 mph7.9 kmh 29.47 in998.0 mb 0.00 in0.0 mm 0.00 in0.0 mm 0.00 in0.0 mm
12:50 PM 53.8°F12.1°C 44.6°F7.0°C 69% 2.7 mph SW4.3 kmh SW 3.8 mph6.1 kmh 29.45 in997.3 mb 0.00 in0.0 mm 0.00 in0.0 mm 0.00 in0.0 mm
12:55 PM 53.8°F12.1°C 44.6°F7.0°C 69% 3.1 mph SW5.0 kmh SW 5.4 mph8.7 kmh 29.45 in997.3 mb 0.00 in0.0 mm 0.00 in0.0 mm 0.00 in0.0 mm
01:00 PM 54.1°F12.3°C 44.6°F7.0°C 68% 2.2 mph S3.5 kmh S 5.4 mph8.7 kmh 29.45 in997.3 mb 0.00 in0.0 mm 0.00 in0.0 mm 0.00 in0.0 mm
01:05 PM 54.3°F12.4°C 44.6°F7.0°C 68% 1.5 mph S2.4 kmh S 3.4 mph5.5 kmh 29.47 in998.0 mb 0.00 in0.0 mm 0.00 in0.0 mm 0.00 in0.0 mm
01:10 PM 54.1°F12.3°C 44.6°F7.0°C 68% 1.9 mph SSW3.1 kmh SSW 6.5 mph10.5 kmh 29.47 in998.0 mb 0.00 in0.0 mm 0.00 in0.0 mm 0.00 in0.0 mm
01:15 PM 54.3°F12.4°C 44.6°F7.0°C 68% 1.8 mph SW2.9 kmh SW 6.5 mph10.5 kmh 29.47 in998.0 mb 0.00 in0.0 mm 0.00 in0.0 mm 0.00 in0.0 mm
01:20 PM 54.0°F12.2°C 44.6°F7.0°C 68% 2.6 mph SW4.2 kmh SW 5.8 mph9.3 kmh 29.47 in998.0 mb 0.00 in0.0 mm 0.00 in0.0 mm 0.00 in0.0 mm
01:25 PM 54.0°F12.2°C 44.6°F7.0°C 68% 2.5 mph SW4.0 kmh SW 5.8 mph9.3 kmh 29.47 in998.0 mb 0.00 in0.0 mm 0.00 in0.0 mm 0.00 in0.0 mm
01:30 PM 54.1°F12.3°C 44.6°F7.0°C 69% 1.7 mph SW2.7 kmh SW 4.0 mph6.4 kmh 29.47 in998.0 mb 0.00 in0.0 mm 0.00 in0.0 mm 0.00 in0.0 mm
01:35 PM 54.0°F12.2°C 44.6°F7.0°C 69% 2.4 mph SSW3.9 kmh SSW 3.8 mph6.1 kmh 29.45 in997.3 mb 0.00 in0.0 mm 0.00 in0.0 mm 0.00 in0.0 mm
01:40 PM 53.6°F12.0°C 44.6°F7.0°C 69% 2.4 mph S3.9 kmh S 6.0 mph9.7 kmh 29.45 in997.3 mb 0.00 in0.0 mm 0.00 in0.0 mm 0.00 in0.0 mm
01:45 PM 53.4°F11.9°C 42.8°F6.0°C 69% 2.5 mph SE4.0 kmh SE 6.0 mph9.7 kmh 29.45 in997.3 mb 0.00 in0.0 mm 0.00 in0.0 mm 0.00 in0.0 mm
01:50 PM 53.8°F12.1°C 44.6°F7.0°C 69% 2.4 mph S3.9 kmh S 5.4 mph8.7 kmh 29.45 in997.3 mb 0.00 in0.0 mm 0.00 in0.0 mm 0.00 in0.0 mm
01:55 PM 53.6°F12.0°C 44.6°F7.0°C 69% 1.9 mph SSW3.1 kmh SSW 5.4 mph8.7 kmh 29.45 in997.3 mb 0.00 in0.0 mm 0.00 in0.0 mm 0.00 in0.0 mm
02:00 PM 54.0°F12.2°C 44.6°F7.0°C 69% 1.2 mph SSW1.9 kmh SSW 3.1 mph5.0 kmh 29.45 in997.3 mb 0.00 in0.0 mm 0.00 in0.0 mm 0.00 in0.0 mm
02:05 PM 53.8°F12.1°C 44.6°F7.0°C 69% 1.5 mph SSW2.4 kmh SSW 3.1 mph5.0 kmh 29.45 in997.3 mb 0.00 in0.0 mm 0.00 in0.0 mm 0.00 in0.0 mm
02:10 PM 53.6°F12.0°C 44.6°F7.0°C 70% 2.7 mph SSW4.3 kmh SSW 6.3 mph10.1 kmh 29.45 in997.3 mb 0.00 in0.0 mm 0.00 in0.0 mm 0.00 in0.0 mm
02:15 PM 53.6°F12.0°C 44.6°F7.0°C 70% 3.3 mph SSW5.3 kmh SSW 6.3 mph10.1 kmh 29.45 in997.3 mb 0.00 in0.0 mm 0.00 in0.0 mm 0.00 in0.0 mm
02:20 PM 53.4°F11.9°C 44.6°F7.0°C 70% 3.0 mph SW4.8 kmh SW 4.9 mph7.9 kmh 29.45 in997.3 mb 0.00 in0.0 mm 0.00 in0.0 mm 0.00 in0.0 mm
02:25 PM 53.6°F12.0°C 44.6°F7.0°C 70% 2.5 mph SW4.0 kmh SW 4.9 mph7.9 kmh 29.45 in997.3 mb 0.00 in0.0 mm 0.00 in0.0 mm 0.00 in0.0 mm
02:30 PM 53.8°F12.1°C 44.6°F7.0°C 70% 1.8 mph SW2.9 kmh SW 3.6 mph5.8 kmh 29.45 in997.3 mb 0.00 in0.0 mm 0.00 in0.0 mm 0.00 in0.0 mm
02:35 PM 53.8°F12.1°C 44.6°F7.0°C 70% 2.0 mph SSW3.2 kmh SSW 3.6 mph5.8 kmh 29.45 in997.3 mb 0.00 in0.0 mm 0.00 in0.0 mm 0.00 in0.0 mm
02:40 PM 54.0°F12.2°C 44.6°F7.0°C 70% 2.8 mph SSW4.5 kmh SSW 5.4 mph8.7 kmh 29.45 in997.3 mb 0.00 in0.0 mm 0.00 in0.0 mm 0.00 in0.0 mm
02:45 PM 54.0°F12.2°C 44.6°F7.0°C 70% 2.8 mph S4.5 kmh S 5.4 mph8.7 kmh 29.45 in997.3 mb 0.00 in0.0 mm 0.00 in0.0 mm 0.00 in0.0 mm
02:50 PM 54.0°F12.2°C 44.6°F7.0°C 70% 2.9 mph SSW4.7 kmh SSW 7.4 mph11.9 kmh 29.45 in997.3 mb 0.00 in0.0 mm 0.00 in0.0 mm 0.00 in0.0 mm
02:55 PM 54.0°F12.2°C 44.6°F7.0°C 71% 3.5 mph S5.6 kmh S 7.4 mph11.9 kmh 29.45 in997.3 mb 0.00 in0.0 mm 0.00 in0.0 mm 0.00 in0.0 mm
03:00 PM 54.1°F12.3°C 44.6°F7.0°C 70% 3.6 mph S5.8 kmh S 5.4 mph8.7 kmh 29.45 in997.3 mb 0.00 in0.0 mm 0.00 in0.0 mm 0.00 in0.0 mm
03:05 PM 54.1°F12.3°C 46.4°F8.0°C 71% 3.6 mph S5.8 kmh S 6.0 mph9.7 kmh 29.27 in991.2 mb 0.00 in0.0 mm 0.00 in0.0 mm 0.00 in0.0 mm
03:10 PM 54.1°F12.3°C 46.4°F8.0°C 71% 3.3 mph SSE5.3 kmh SSE 6.0 mph9.7 kmh 29.27 in991.2 mb 0.00 in0.0 mm 0.00 in0.0 mm 0.00 in0.0 mm
03:15 PM 54.1°F12.3°C 46.4°F8.0°C 71% 2.4 mph S3.9 kmh S 3.4 mph5.5 kmh 29.27 in991.2 mb 0.00 in0.0 mm 0.00 in0.0 mm 0.00 in0.0 mm
03:20 PM 54.1°F12.3°C 46.4°F8.0°C 71% 2.5 mph S4.0 kmh S 4.3 mph6.9 kmh 29.41 in995.9 mb 0.00 in0.0 mm 0.00 in0.0 mm 0.00 in0.0 mm
03:25 PM 54.1°F12.3°C 46.4°F8.0°C 71% 3.2 mph S5.1 kmh S 4.3 mph6.9 kmh 29.41 in995.9 mb 0.00 in0.0 mm 0.00 in0.0 mm 0.00 in0.0 mm
03:30 PM 54.1°F12.3°C 46.4°F8.0°C 71% 3.5 mph S5.6 kmh S 4.3 mph6.9 kmh 29.41 in995.9 mb 0.00 in0.0 mm 0.00 in0.0 mm 0.00 in0.0 mm
03:35 PM 54.0°F12.2°C 44.6°F7.0°C 71% 3.1 mph S5.0 kmh S 5.4 mph8.7 kmh 29.41 in995.9 mb 0.00 in0.0 mm 0.00 in0.0 mm 0.00 in0.0 mm
03:40 PM 54.0°F12.2°C 46.4°F8.0°C 72% 2.4 mph SSW3.9 kmh SSW 5.4 mph8.7 kmh 29.41 in995.9 mb 0.00 in0.0 mm 0.00 in0.0 mm 0.00 in0.0 mm
03:45 PM 53.8°F12.1°C 44.6°F7.0°C 71% 3.0 mph S4.8 kmh S 5.8 mph9.3 kmh 29.41 in995.9 mb 0.00 in0.0 mm 0.00 in0.0 mm 0.00 in0.0 mm
03:50 PM 53.6°F12.0°C 44.6°F7.0°C 71% 3.5 mph S5.6 kmh S 6.0 mph9.7 kmh 29.41 in995.9 mb 0.00 in0.0 mm 0.00 in0.0 mm 0.00 in0.0 mm
03:55 PM 53.6°F12.0°C 46.4°F8.0°C 72% 3.6 mph S5.8 kmh S 6.5 mph10.5 kmh 29.41 in995.9 mb 0.00 in0.0 mm 0.00 in0.0 mm 0.00 in0.0 mm
04:00 PM 53.4°F11.9°C 44.6°F7.0°C 72% 3.7 mph SSW6.0 kmh SSW 6.5 mph10.5 kmh 29.41 in995.9 mb 0.00 in0.0 mm 0.00 in0.0 mm 0.00 in0.0 mm
04:05 PM 53.2°F11.8°C 44.6°F7.0°C 71% 3.6 mph SSW5.8 kmh SSW 6.5 mph10.5 kmh 29.39 in995.3 mb 0.00 in0.0 mm 0.00 in0.0 mm 0.00 in0.0 mm
04:10 PM 53.1°F11.7°C 44.6°F7.0°C 71% 3.7 mph SSW6.0 kmh SSW 6.5 mph10.5 kmh 29.39 in995.3 mb 0.00 in0.0 mm 0.00 in0.0 mm 0.00 in0.0 mm
04:15 PM 52.9°F11.6°C 44.6°F7.0°C 72% 3.3 mph S5.3 kmh S 3.8 mph6.1 kmh 29.39 in995.3 mb 0.00 in0.0 mm 0.00 in0.0 mm 0.00 in0.0 mm
04:20 PM 52.5°F11.4°C 42.8°F6.0°C 71% 3.4 mph S5.5 kmh S 5.8 mph9.3 kmh 29.39 in995.3 mb 0.00 in0.0 mm 0.00 in0.0 mm 0.00 in0.0 mm
04:25 PM 52.3°F11.3°C 44.6°F7.0°C 72% 3.5 mph SSW5.6 kmh SSW 5.8 mph9.3 kmh 29.39 in995.3 mb 0.00 in0.0 mm 0.00 in0.0 mm 0.00 in0.0 mm
04:30 PM 52.2°F11.2°C 42.8°F6.0°C 71% 3.9 mph SSW6.3 kmh SSW 5.8 mph9.3 kmh 29.39 in995.3 mb 0.00 in0.0 mm 0.00 in0.0 mm 0.00 in0.0 mm
04:35 PM 52.0°F11.1°C 42.8°F6.0°C 71% 3.3 mph S5.3 kmh S 5.6 mph9.0 kmh 29.39 in995.3 mb 0.00 in0.0 mm 0.00 in0.0 mm 0.00 in0.0 mm
04:40 PM 51.6°F10.9°C 42.8°F6.0°C 72% 2.1 mph S3.4 kmh S 3.4 mph5.5 kmh 29.39 in995.3 mb 0.00 in0.0 mm 0.00 in0.0 mm 0.00 in0.0 mm
04:45 PM 51.4°F10.8°C 42.8°F6.0°C 72% 2.1 mph S3.4 kmh S 3.8 mph6.1 kmh 29.39 in995.3 mb 0.00 in0.0 mm 0.00 in0.0 mm 0.00 in0.0 mm
04:50 PM 51.1°F10.6°C 42.8°F6.0°C 72% 2.7 mph SSW4.3 kmh SSW 3.8 mph6.1 kmh 29.39 in995.3 mb 0.00 in0.0 mm 0.00 in0.0 mm 0.00 in0.0 mm
04:55 PM 50.9°F10.5°C 42.8°F6.0°C 72% 2.9 mph S4.7 kmh S 3.8 mph6.1 kmh 29.39 in995.3 mb 0.00 in0.0 mm 0.00 in0.0 mm 0.00 in0.0 mm
05:00 PM 50.7°F10.4°C 42.8°F6.0°C 72% 3.4 mph S5.5 kmh S 6.5 mph10.5 kmh 29.39 in995.3 mb 0.00 in0.0 mm 0.00 in0.0 mm 0.00 in0.0 mm
05:05 PM 50.4°F10.2°C 42.8°F6.0°C 72% 3.3 mph S5.3 kmh S 6.5 mph10.5 kmh 29.39 in995.3 mb 0.00 in0.0 mm 0.00 in0.0 mm 0.00 in0.0 mm
05:10 PM 50.2°F10.1°C 42.8°F6.0°C 72% 2.9 mph S4.7 kmh S 4.7 mph7.6 kmh 29.39 in995.3 mb 0.00 in0.0 mm 0.00 in0.0 mm 0.00 in0.0 mm
05:15 PM 50.0°F10.0°C 42.8°F6.0°C 72% 2.9 mph S4.7 kmh S 4.7 mph7.6 kmh 29.39 in995.3 mb 0.00 in0.0 mm 0.00 in0.0 mm 0.00 in0.0 mm
05:20 PM 49.8°F9.9°C 42.8°F6.0°C 72% 2.8 mph S4.5 kmh S 3.8 mph6.1 kmh 29.39 in995.3 mb 0.00 in0.0 mm 0.00 in0.0 mm 0.00 in0.0 mm
05:25 PM 49.5°F9.7°C 41.0°F5.0°C 72% 2.7 mph S4.3 kmh S 3.6 mph5.8 kmh 29.39 in995.3 mb 0.00 in0.0 mm 0.00 in0.0 mm 0.00 in0.0 mm
05:30 PM 49.3°F9.6°C 41.0°F5.0°C 72% 3.0 mph S4.8 kmh S 4.9 mph7.9 kmh 29.39 in995.3 mb 0.00 in0.0 mm 0.00 in0.0 mm 0.00 in0.0 mm
05:35 PM 49.3°F9.6°C 41.0°F5.0°C 72% 3.9 mph S6.3 kmh S 6.5 mph10.5 kmh 29.39 in995.3 mb 0.00 in0.0 mm 0.00 in0.0 mm 0.00 in0.0 mm
05:40 PM 49.1°F9.5°C 41.0°F5.0°C 72% 4.3 mph S6.9 kmh S 6.5 mph10.5 kmh 29.39 in995.3 mb 0.00 in0.0 mm 0.00 in0.0 mm 0.00 in0.0 mm
05:45 PM 49.1°F9.5°C 41.0°F5.0°C 72% 4.1 mph S6.6 kmh S 6.3 mph10.1 kmh 29.39 in995.3 mb 0.00 in0.0 mm 0.00 in0.0 mm 0.00 in0.0 mm
05:50 PM 48.9°F9.4°C 41.0°F5.0°C 72% 4.5 mph S7.2 kmh S 7.2 mph11.6 kmh 29.39 in995.3 mb 0.00 in0.0 mm 0.00 in0.0 mm 0.00 in0.0 mm
05:55 PM 48.7°F9.3°C 41.0°F5.0°C 72% 4.9 mph S7.9 kmh S 7.2 mph11.6 kmh 29.39 in995.3 mb 0.00 in0.0 mm 0.00 in0.0 mm 0.00 in0.0 mm
06:00 PM 48.7°F9.3°C 41.0°F5.0°C 72% 5.0 mph S8.0 kmh S 7.2 mph11.6 kmh 29.39 in995.3 mb 0.00 in0.0 mm 0.00 in0.0 mm 0.00 in0.0 mm
06:05 PM 48.7°F9.3°C 41.0°F5.0°C 72% 5.1 mph S8.2 kmh S 7.2 mph11.6 kmh 29.39 in995.3 mb 0.00 in0.0 mm 0.00 in0.0 mm 0.00 in0.0 mm
06:10 PM 48.6°F9.2°C 41.0°F5.0°C 72% 4.3 mph S6.9 kmh S 6.3 mph10.1 kmh 29.39 in995.3 mb 0.00 in0.0 mm 0.00 in0.0 mm 0.00 in0.0 mm
06:15 PM 48.0°F8.9°C 39.2°F4.0°C 71% 3.7 mph S6.0 kmh S 6.3 mph10.1 kmh 29.39 in995.3 mb 0.00 in0.0 mm 0.00 in0.0 mm 0.00 in0.0 mm
06:20 PM 47.7°F8.7°C 39.2°F4.0°C 71% 3.3 mph S5.3 kmh S 4.7 mph7.6 kmh 29.39 in995.3 mb 0.00 in0.0 mm 0.00 in0.0 mm 0.00 in0.0 mm
06:25 PM 47.8°F8.8°C 41.0°F5.0°C 72% 3.3 mph S5.3 kmh S 7.6 mph12.2 kmh 29.39 in995.3 mb 0.00 in0.0 mm 0.00 in0.0 mm 0.00 in0.0 mm
06:30 PM 48.0°F8.9°C 41.0°F5.0°C 72% 3.7 mph S6.0 kmh S 7.6 mph12.2 kmh 29.39 in995.3 mb 0.00 in0.0 mm 0.00 in0.0 mm 0.00 in0.0 mm
06:35 PM 48.0°F8.9°C 39.2°F4.0°C 71% 3.6 mph S5.8 kmh S 6.5 mph10.5 kmh 29.12 in986.1 mb 0.00 in0.0 mm 0.00 in0.0 mm 0.00 in0.0 mm
06:40 PM 47.8°F8.8°C 39.2°F4.0°C 71% 3.4 mph S5.5 kmh S 6.5 mph10.5 kmh 29.12 in986.1 mb 0.00 in0.0 mm 0.00 in0.0 mm 0.00 in0.0 mm
06:45 PM 47.5°F8.6°C 39.2°F4.0°C 71% 2.9 mph S4.7 kmh S 6.3 mph10.1 kmh 29.12 in986.1 mb 0.00 in0.0 mm 0.00 in0.0 mm 0.00 in0.0 mm
06:50 PM 47.3°F8.5°C 39.2°F4.0°C 71% 2.7 mph S4.3 kmh S 3.8 mph6.1 kmh 29.36 in994.2 mb 0.00 in0.0 mm 0.00 in0.0 mm 0.00 in0.0 mm
06:55 PM 47.3°F8.5°C 39.2°F4.0°C 71% 2.6 mph SSW4.2 kmh SSW 3.8 mph6.1 kmh 29.36 in994.2 mb 0.00 in0.0 mm 0.00 in0.0 mm 0.00 in0.0 mm
07:00 PM 47.3°F8.5°C 39.2°F4.0°C 71% 3.2 mph S5.1 kmh S 4.9 mph7.9 kmh 29.36 in994.2 mb 0.00 in0.0 mm 0.00 in0.0 mm 0.00 in0.0 mm
07:05 PM 47.3°F8.5°C 39.2°F4.0°C 71% 4.4 mph S7.1 kmh S 6.5 mph10.5 kmh 29.36 in994.2 mb 0.00 in0.0 mm 0.00 in0.0 mm 0.00 in0.0 mm
07:10 PM 47.3°F8.5°C 39.2°F4.0°C 71% 4.4 mph S7.1 kmh S 7.8 mph12.6 kmh 29.36 in994.2 mb 0.00 in0.0 mm 0.00 in0.0 mm 0.00 in0.0 mm
07:15 PM 47.1°F8.4°C 39.2°F4.0°C 71% 3.7 mph S6.0 kmh S 7.8 mph12.6 kmh 29.36 in994.2 mb 0.00 in0.0 mm 0.00 in0.0 mm 0.00 in0.0 mm
07:20 PM 47.1°F8.4°C 39.2°F4.0°C 71% 3.9 mph S6.3 kmh S 6.0 mph9.7 kmh 29.36 in994.2 mb 0.00 in0.0 mm 0.00 in0.0 mm 0.00 in0.0 mm
07:25 PM 46.9°F8.3°C 39.2°F4.0°C 71% 3.8 mph S6.1 kmh S 6.0 mph9.7 kmh 29.36 in994.2 mb 0.00 in0.0 mm 0.00 in0.0 mm 0.00 in0.0 mm
07:30 PM 46.4°F8.0°C 37.4°F3.0°C 71% 2.8 mph S4.5 kmh S 5.4 mph8.7 kmh 29.36 in994.2 mb 0.00 in0.0 mm 0.00 in0.0 mm 0.00 in0.0 mm
07:35 PM 46.8°F8.2°C 37.4°F3.0°C 71% 3.0 mph S4.8 kmh S 6.3 mph10.1 kmh 29.36 in994.2 mb 0.00 in0.0 mm 0.00 in0.0 mm 0.00 in0.0 mm
07:40 PM 46.6°F8.1°C 37.4°F3.0°C 71% 3.1 mph S5.0 kmh S 6.3 mph10.1 kmh 29.36 in994.2 mb 0.00 in0.0 mm 0.00 in0.0 mm 0.00 in0.0 mm
07:45 PM 46.8°F8.2°C 39.2°F4.0°C 72% 3.2 mph S5.1 kmh S 5.8 mph9.3 kmh 29.36 in994.2 mb 0.00 in0.0 mm 0.00 in0.0 mm 0.00 in0.0 mm
07:50 PM 46.8°F8.2°C 39.2°F4.0°C 72% 4.1 mph S6.6 kmh S 6.0 mph9.7 kmh 29.36 in994.2 mb 0.00 in0.0 mm 0.00 in0.0 mm 0.00 in0.0 mm
07:55 PM 46.8°F8.2°C 39.2°F4.0°C 72% 4.2 mph S6.8 kmh S 6.5 mph10.5 kmh 29.36 in994.2 mb 0.00 in0.0 mm 0.00 in0.0 mm 0.00 in0.0 mm
08:00 PM 46.6°F8.1°C 39.2°F4.0°C 72% 3.9 mph S6.3 kmh S 6.5 mph10.5 kmh 29.36 in994.2 mb 0.00 in0.0 mm 0.00 in0.0 mm 0.00 in0.0 mm
08:05 PM 46.8°F8.2°C 39.2°F4.0°C 72% 3.5 mph S5.6 kmh S 8.5 mph13.7 kmh 29.36 in994.2 mb 0.00 in0.0 mm 0.00 in0.0 mm 0.00 in0.0 mm
08:10 PM 46.6°F8.1°C 39.2°F4.0°C 72% 3.2 mph S5.1 kmh S 8.5 mph13.7 kmh 29.36 in994.2 mb 0.00 in0.0 mm 0.00 in0.0 mm 0.00 in0.0 mm
08:15 PM 46.4°F8.0°C 39.2°F4.0°C 72% 3.4 mph S5.5 kmh S 6.0 mph9.7 kmh 29.36 in994.2 mb 0.00 in0.0 mm 0.00 in0.0 mm 0.00 in0.0 mm
08:20 PM 46.4°F8.0°C 39.2°F4.0°C 72% 3.4 mph S5.5 kmh S 5.6 mph9.0 kmh 29.33 in993.2 mb 0.00 in0.0 mm 0.00 in0.0 mm 0.00 in0.0 mm
08:25 PM 46.4°F8.0°C 39.2°F4.0°C 72% 3.3 mph S5.3 kmh S 4.5 mph7.2 kmh 29.33 in993.2 mb 0.00 in0.0 mm 0.00 in0.0 mm 0.00 in0.0 mm
08:30 PM 46.4°F8.0°C 39.2°F4.0°C 73% 2.8 mph S4.5 kmh S 4.5 mph7.2 kmh 29.33 in993.2 mb 0.00 in0.0 mm 0.00 in0.0 mm 0.00 in0.0 mm
08:35 PM 46.2°F7.9°C 37.4°F3.0°C 73% 2.1 mph S3.4 kmh S 4.0 mph6.4 kmh 29.36 in994.2 mb 0.00 in0.0 mm 0.00 in0.0 mm 0.00 in0.0 mm
08:40 PM 46.2°F7.9°C 37.4°F3.0°C 73% 2.6 mph SSW4.2 kmh SSW 6.3 mph10.1 kmh 29.36 in994.2 mb 0.00 in0.0 mm 0.00 in0.0 mm 0.00 in0.0 mm
08:45 PM 46.0°F7.8°C 37.4°F3.0°C 73% 2.3 mph SW3.7 kmh SW 6.3 mph10.1 kmh 29.36 in994.2 mb 0.00 in0.0 mm 0.00 in0.0 mm 0.00 in0.0 mm
08:50 PM 45.9°F7.7°C 37.4°F3.0°C 73% 1.9 mph SW3.1 kmh SW 3.1 mph5.0 kmh 29.33 in993.2 mb 0.00 in0.0 mm 0.00 in0.0 mm 0.00 in0.0 mm
08:55 PM 45.9°F7.7°C 37.4°F3.0°C 73% 2.5 mph SSW4.0 kmh SSW 6.5 mph10.5 kmh 29.33 in993.2 mb 0.00 in0.0 mm 0.00 in0.0 mm 0.00 in0.0 mm
09:00 PM 45.7°F7.6°C 37.4°F3.0°C 73% 2.1 mph SSW3.4 kmh SSW 6.5 mph10.5 kmh 29.33 in993.2 mb 0.00 in0.0 mm 0.00 in0.0 mm 0.00 in0.0 mm
09:05 PM 45.7°F7.6°C 37.4°F3.0°C 74% 2.1 mph SW3.4 kmh SW 4.5 mph7.2 kmh 29.18 in988.1 mb 0.00 in0.0 mm 0.00 in0.0 mm 0.00 in0.0 mm
09:10 PM 45.5°F7.5°C 37.4°F3.0°C 74% 2.9 mph SSW4.7 kmh SSW 6.3 mph10.1 kmh 29.18 in988.1 mb 0.00 in0.0 mm 0.00 in0.0 mm 0.00 in0.0 mm
09:15 PM 45.5°F7.5°C 37.4°F3.0°C 74% 2.7 mph S4.3 kmh S 6.3 mph10.1 kmh 29.18 in988.1 mb 0.00 in0.0 mm 0.00 in0.0 mm 0.00 in0.0 mm
09:20 PM 44.8°F7.1°C 37.4°F3.0°C 74% 1.5 mph S2.4 kmh S 4.7 mph7.6 kmh 29.27 in991.2 mb 0.00 in0.0 mm 0.00 in0.0 mm 0.00 in0.0 mm
09:25 PM 44.6°F7.0°C 37.4°F3.0°C 74% 1.4 mph SW2.3 kmh SW 2.9 mph4.7 kmh 29.27 in991.2 mb 0.00 in0.0 mm 0.00 in0.0 mm 0.00 in0.0 mm
09:30 PM 44.1°F6.7°C 37.4°F3.0°C 74% 1.6 mph SW2.6 kmh SW 2.9 mph4.7 kmh 29.27 in991.2 mb 0.00 in0.0 mm 0.00 in0.0 mm 0.00 in0.0 mm
09:35 PM 43.9°F6.6°C 37.4°F3.0°C 74% 1.5 mph WSW2.4 kmh WSW 3.4 mph5.5 kmh 29.15 in987.1 mb 0.00 in0.0 mm 0.00 in0.0 mm 0.00 in0.0 mm
09:40 PM 43.7°F6.5°C 37.4°F3.0°C 75% 1.5 mph W2.4 kmh W 3.4 mph5.5 kmh 29.15 in987.1 mb 0.00 in0.0 mm 0.00 in0.0 mm 0.00 in0.0 mm
09:45 PM 43.9°F6.6°C 37.4°F3.0°C 75% 1.0 mph WSW1.6 kmh WSW 2.5 mph4.0 kmh 29.15 in987.1 mb 0.00 in0.0 mm 0.00 in0.0 mm 0.00 in0.0 mm
09:50 PM 44.2°F6.8°C 37.4°F3.0°C 75% 1.0 mph SSW1.6 kmh SSW 3.1 mph5.0 kmh 29.33 in993.2 mb 0.00 in0.0 mm 0.00 in0.0 mm 0.00 in0.0 mm
09:55 PM 44.2°F6.8°C 37.4°F3.0°C 75% 1.4 mph SW2.3 kmh SW 3.1 mph5.0 kmh 29.33 in993.2 mb 0.00 in0.0 mm 0.00 in0.0 mm 0.00 in0.0 mm
10:00 PM 44.6°F7.0°C 37.4°F3.0°C 75% 1.7 mph SSW2.7 kmh SSW 4.9 mph7.9 kmh 29.33 in993.2 mb 0.00 in0.0 mm 0.00 in0.0 mm 0.00 in0.0 mm
10:05 PM 44.8°F7.1°C 37.4°F3.0°C 75% 1.9 mph SSW3.1 kmh SSW 7.2 mph11.6 kmh 29.33 in993.2 mb 0.00 in0.0 mm 0.00 in0.0 mm 0.00 in0.0 mm
10:10 PM 44.6°F7.0°C 37.4°F3.0°C 75% 2.5 mph SSW4.0 kmh SSW 7.2 mph11.6 kmh 29.33 in993.2 mb 0.00 in0.0 mm 0.00 in0.0 mm 0.00 in0.0 mm
10:15 PM 44.4°F6.9°C 37.4°F3.0°C 75% 2.7 mph SW4.3 kmh SW 4.0 mph6.4 kmh 29.33 in993.2 mb 0.00 in0.0 mm 0.00 in0.0 mm 0.00 in0.0 mm
10:20 PM 44.2°F6.8°C 37.4°F3.0°C 75% 3.0 mph W4.8 kmh W 4.9 mph7.9 kmh 29.33 in993.2 mb 0.00 in0.0 mm 0.00 in0.0 mm 0.00 in0.0 mm
10:25 PM 44.1°F6.7°C 37.4°F3.0°C 75% 2.6 mph W4.2 kmh W 4.9 mph7.9 kmh 29.33 in993.2 mb 0.00 in0.0 mm 0.00 in0.0 mm 0.00 in0.0 mm
10:30 PM 44.1°F6.7°C 37.4°F3.0°C 76% 1.6 mph W2.6 kmh W 4.9 mph7.9 kmh 29.33 in993.2 mb 0.00 in0.0 mm 0.00 in0.0 mm 0.00 in0.0 mm
10:35 PM 43.9°F6.6°C 37.4°F3.0°C 76% 0.8 mph WSW1.3 kmh WSW 3.6 mph5.8 kmh 29.30 in992.2 mb 0.00 in0.0 mm 0.00 in0.0 mm 0.00 in0.0 mm
10:40 PM 43.3°F6.3°C 37.4°F3.0°C 75% 0.9 mph SW1.4 kmh SW 2.5 mph4.0 kmh 29.30 in992.2 mb 0.00 in0.0 mm 0.00 in0.0 mm 0.00 in0.0 mm
10:45 PM 43.7°F6.5°C 37.4°F3.0°C 76% 1.7 mph WSW2.7 kmh WSW 3.4 mph5.5 kmh 29.30 in992.2 mb 0.00 in0.0 mm 0.00 in0.0 mm 0.00 in0.0 mm
10:50 PM 43.5°F6.4°C 37.4°F3.0°C 76% 1.8 mph SW2.9 kmh SW 4.9 mph7.9 kmh 29.30 in992.2 mb 0.00 in0.0 mm 0.00 in0.0 mm 0.00 in0.0 mm
10:55 PM 43.7°F6.5°C 37.4°F3.0°C 76% 1.8 mph SW2.9 kmh SW 4.9 mph7.9 kmh 29.30 in992.2 mb 0.00 in0.0 mm 0.00 in0.0 mm 0.00 in0.0 mm
11:00 PM 43.7°F6.5°C 37.4°F3.0°C 76% 1.9 mph SW3.1 kmh SW 4.9 mph7.9 kmh 29.30 in992.2 mb 0.00 in0.0 mm 0.00 in0.0 mm 0.00 in0.0 mm
11:05 PM 44.1°F6.7°C 37.4°F3.0°C 77% 2.3 mph S3.7 kmh S 4.0 mph6.4 kmh 29.30 in992.2 mb 0.00 in0.0 mm 0.00 in0.0 mm 0.00 in0.0 mm
11:10 PM 43.9°F6.6°C 37.4°F3.0°C 76% 2.5 mph SSW4.0 kmh SSW 3.6 mph5.8 kmh 29.30 in992.2 mb 0.00 in0.0 mm 0.00 in0.0 mm 0.00 in0.0 mm
11:15 PM 44.2°F6.8°C 37.4°F3.0°C 77% 3.0 mph SSW4.8 kmh SSW 6.3 mph10.1 kmh 29.30 in992.2 mb 0.00 in0.0 mm 0.00 in0.0 mm 0.00 in0.0 mm
11:20 PM 44.4°F6.9°C 37.4°F3.0°C 76% 4.0 mph S6.4 kmh S 7.4 mph11.9 kmh 29.30 in992.2 mb 0.00 in0.0 mm 0.00 in0.0 mm 0.00 in0.0 mm
11:25 PM 44.4°F6.9°C 37.4°F3.0°C 76% 4.9 mph S7.9 kmh S 7.4 mph11.9 kmh 29.30 in992.2 mb 0.00 in0.0 mm 0.00 in0.0 mm 0.00 in0.0 mm
11:30 PM 44.4°F6.9°C 37.4°F3.0°C 76% 4.8 mph S7.7 kmh S 9.4 mph15.1 kmh 29.30 in992.2 mb 0.00 in0.0 mm 0.00 in0.0 mm 0.00 in0.0 mm
11:35 PM 44.2°F6.8°C 37.4°F3.0°C 76% 2.9 mph S4.7 kmh S 9.4 mph15.1 kmh 29.30 in992.2 mb 0.00 in0.0 mm 0.00 in0.0 mm 0.00 in0.0 mm
11:40 PM 44.2°F6.8°C 37.4°F3.0°C 76% 2.9 mph S4.7 kmh S 6.5 mph10.5 kmh 29.30 in992.2 mb 0.00 in0.0 mm 0.00 in0.0 mm 0.00 in0.0 mm
11:45 PM 44.2°F6.8°C 37.4°F3.0°C 76% 3.7 mph S6.0 kmh S 7.4 mph11.9 kmh 29.30 in992.2 mb 0.00 in0.0 mm 0.00 in0.0 mm 0.00 in0.0 mm
11:50 PM 44.2°F6.8°C 37.4°F3.0°C 76% 3.4 mph SSW5.5 kmh SSW 7.4 mph11.9 kmh 29.30 in992.2 mb 0.00 in0.0 mm 0.00 in0.0 mm 0.00 in0.0 mm
11:55 PM 44.2°F6.8°C 37.4°F3.0°C 76% 4.6 mph S7.4 kmh S 9.6 mph15.4 kmh 29.30 in992.2 mb 0.00 in0.0 mm 0.00 in0.0 mm 0.00 in0.0 mm